Time;durP1;ratioP1;P1;durP2;ratioP2;P2;SDS_P1;SDS_P2;PMS_P1;PMS_P2;Temp;Humidity;BMP_temperature;BMP_pressure;BME280_temperature;BME280_humidity;BME280_pressure;Samples;Min_cycle;Max_cycle;Signal;HPM_P1;HPM_P2
2022/09/01 00:00:13;;;;;;;1.50;1.40;;;;;;;18.32;65.00;98499.97;6242406;23;20012;-85
2022/09/01 00:02:41;;;;;;;1.55;1.45;;;;;;;18.27;65.83;98494.56;6243246;23;20498;-87
2022/09/01 00:05:09;;;;;;;1.70;1.60;;;;;;;18.28;65.14;98490.06;6216304;23;20012;-87
2022/09/01 00:07:35;;;;;;;2.20;1.60;;;;;;;18.28;65.70;98492.72;6215988;23;20020;-86
2022/09/01 00:10:07;;;;;;;2.17;2.08;;;;;;;18.23;65.69;98492.63;6216260;23;20008;-87
2022/09/01 00:12:36;;;;;;;1.70;1.60;;;;;;;18.26;65.88;98490.31;6215523;23;20016;-85
2022/09/01 00:15:07;;;;;;;1.50;1.40;;;;;;;18.20;65.80;98485.97;6215920;23;20016;-86
2022/09/01 00:17:34;;;;;;;1.73;1.63;;;;;;;18.10;66.24;98485.78;6242360;23;20040;-85
2022/09/01 00:20:01;;;;;;;2.90;2.70;;;;;;;17.95;66.59;98480.22;6242222;23;20012;-85
2022/09/01 00:22:28;;;;;;;2.50;2.30;;;;;;;17.85;66.86;98483.47;6242238;23;20023;-84
2022/09/01 00:24:55;;;;;;;2.50;2.30;;;;;;;17.73;67.34;98475.53;6222983;23;20066;-85
2022/09/01 00:27:22;;;;;;;2.42;2.22;;;;;;;17.63;68.08;98480.63;6242259;23;20554;-85
2022/09/01 00:29:56;;;;;;;2.80;2.60;;;;;;;17.49;68.88;98463.38;6241822;23;20040;-85
2022/09/01 00:32:24;;;;;;;2.90;2.60;;;;;;;17.37;68.91;98472.16;6190201;23;20047;-85
2022/09/01 00:34:50;;;;;;;2.40;2.20;;;;;;;17.34;69.47;98471.84;6242336;23;20023;-85
2022/09/01 00:37:17;;;;;;;2.63;2.42;;;;;;;17.28;69.56;98483.38;6241710;23;20016;-85
2022/09/01 00:39:44;;;;;;;4.13;2.83;;;;;;;17.17;69.68;98485.00;6215752;23;20012;-85
2022/09/01 00:42:10;;;;;;;3.15;2.85;;;;;;;17.03;70.03;98486.25;6215683;23;20066;-85
2022/09/01 00:44:37;;;;;;;2.85;2.58;;;;;;;17.06;70.11;98476.00;6215397;23;20385;-85
2022/09/01 00:47:05;;;;;;;3.40;3.10;;;;;;;16.96;70.68;98480.28;6241475;23;20016;-85
2022/09/01 00:49:43;;;;;;;3.95;3.58;;;;;;;16.79;70.85;98486.28;6214700;23;20016;-84
2022/09/01 00:52:19;;;;;;;4.25;3.85;;;;;;;16.73;71.25;98484.56;6242252;23;20523;-84
2022/09/01 00:54:57;;;;;;;4.10;3.70;;;;;;;16.68;71.76;98478.31;6211305;23;20070;-83
2022/09/01 00:57:24;;;;;;;4.47;4.07;;;;;;;16.42;72.34;98471.56;6241501;23;20020;-83
2022/09/01 01:00:22;;;;;;;4.03;3.67;;;;;;;16.47;72.46;98483.09;6242195;23;20314;-83
2022/09/01 01:02:54;;;;;;;3.85;3.55;;;;;;;16.54;72.49;98483.00;6190269;23;20338;-83
2022/09/01 01:05:29;;;;;;;3.72;3.28;;;;;;;16.52;72.01;98477.13;6242014;23;20115;-82
2022/09/01 01:07:56;;;;;;;3.75;3.45;;;;;;;16.51;71.98;98470.22;6242249;23;20020;-83
2022/09/01 01:10:25;;;;;;;3.80;3.50;;;;;;;16.50;71.74;98472.06;6241493;23;20048;-82
2022/09/01 01:12:52;;;;;;;3.80;3.40;;;;;;;16.47;71.25;98455.81;6190079;23;20016;-82
2022/09/01 01:15:19;;;;;;;3.70;3.33;;;;;;;16.51;71.61;98462.28;6241823;23;20024;-82
2022/09/01 01:17:46;;;;;;;2.97;2.78;;;;;;;16.53;71.00;98476.09;6215029;23;20020;-82
2022/09/01 01:23:15;;;;;;;3.70;3.40;;;;;;;16.49;71.42;98475.75;6214913;23;20319;-84
2022/09/01 01:25:52;;;;;;;3.63;3.33;;;;;;;16.39;71.80;98475.50;6242092;22;20027;-85
2022/09/01 01:28:32;;;;;;;3.65;3.15;;;;;;;16.33;72.13;98471.91;6240988;23;20020;-84
2022/09/01 01:31:11;;;;;;;4.65;3.40;;;;;;;16.29;71.87;98477.88;6215247;23;20020;-83
2022/09/01 01:33:44;;;;;;;3.60;2.97;;;;;;;16.37;72.05;98476.75;6242149;23;20020;-85
2022/09/01 01:36:15;;;;;;;2.80;2.60;;;;;;;16.38;72.04;98468.59;6215131;23;20450;-84
2022/09/01 01:38:46;;;;;;;2.58;2.38;;;;;;;16.48;71.94;98473.31;6242558;23;20016;-84
2022/09/01 01:41:18;;;;;;;2.85;2.65;;;;;;;16.50;70.93;98476.56;6241085;23;20020;-85
2022/09/01 01:43:47;;;;;;;2.35;2.15;;;;;;;16.45;71.36;98469.28;6215069;23;20021;-85
2022/09/01 01:46:17;;;;;;;2.72;2.00;;;;;;;16.68;71.53;98468.50;6241445;23;20020;-85
2022/09/01 01:48:46;;;;;;;3.28;2.20;;;;;;;16.71;71.43;98473.38;6241603;23;20441;-85
2022/09/01 01:51:13;;;;;;;2.65;2.45;;;;;;;16.65;69.95;98458.38;6189471;23;20373;-85
2022/09/01 01:53:39;;;;;;;1.80;1.70;;;;;;;16.84;71.37;98472.31;6210697;23;20012;-85
2022/09/01 01:56:09;;;;;;;3.05;2.00;;;;;;;16.88;70.99;98462.09;6241997;23;20017;-85
2022/09/01 01:58:36;;;;;;;1.98;1.88;;;;;;;16.89;70.76;98466.34;6214712;23;20048;-85
2022/09/01 02:01:03;;;;;;;1.90;1.80;;;;;;;16.83;70.57;98470.72;6241453;23;20020;-85
2022/09/01 02:03:37;;;;;;;2.30;2.10;;;;;;;16.88;70.64;98468.19;6241774;23;20047;-85
2022/09/01 02:06:10;;;;;;;2.50;2.30;;;;;;;16.86;70.72;98464.97;6214144;23;20341;-85
2022/09/01 02:08:39;;;;;;;2.50;2.22;;;;;;;16.85;70.72;98463.34;6242415;23;20024;-85
2022/09/01 02:11:07;;;;;;;3.08;2.75;;;;;;;16.72;70.96;98466.22;6190097;23;20437;-84
2022/09/01 02:13:34;;;;;;;3.20;2.90;;;;;;;16.66;71.42;98456.53;6241735;23;20042;-85
2022/09/01 02:16:11;;;;;;;2.88;2.30;;;;;;;16.64;71.31;98461.25;6216448;23;20024;-84
2022/09/01 02:18:46;;;;;;;2.53;2.00;;;;;;;16.62;71.58;98458.84;6243926;23;20388;-84
2022/09/01 02:21:21;;;;;;;3.10;2.80;;;;;;;16.45;71.92;98457.91;6216688;23;20020;-85
2022/09/01 02:23:59;;;;;;;3.00;2.80;;;;;;;16.18;72.30;98437.13;6243312;23;20434;-84
2022/09/01 02:26:39;;;;;;;3.63;3.33;;;;;;;16.05;73.00;98458.50;6244011;23;20468;-83
2022/09/01 02:29:16;;;;;;;4.35;3.92;;;;;;;15.88;73.63;98452.22;6242579;23;20017;-84
2022/09/01 02:31:50;;;;;;;4.13;3.72;;;;;;;15.75;73.75;98448.72;6243506;23;20012;-83
2022/09/01 02:34:20;;;;;;;3.90;3.45;;;;;;;15.70;73.98;98440.66;6243173;23;20027;-85
2022/09/01 02:36:50;;;;;;;4.10;3.70;;;;;;;15.62;74.26;98432.22;6243133;23;20062;-83
2022/09/01 02:39:22;;;;;;;;;;;;;;;15.66;74.19;98439.50;6244062;23;20504;-84
2022/09/01 02:41:50;;;;;;;4.03;3.63;;;;;;;15.64;74.36;98444.19;6243146;23;19999;-82
2022/09/01 02:44:20;;;;;;;3.70;3.40;;;;;;;15.64;74.70;98446.84;6216272;23;20604;-83
2022/09/01 02:46:49;;;;;;;4.15;3.85;;;;;;;15.50;74.97;98430.31;6243272;23;20020;-84
2022/09/01 02:49:27;;;;;;;3.78;3.47;;;;;;;15.52;75.52;98438.03;6243172;23;20016;-84
2022/09/01 02:51:58;;;;;;;4.07;3.67;;;;;;;15.53;75.08;98436.97;6242791;23;20016;-84
2022/09/01 02:54:27;;;;;;;3.85;3.55;;;;;;;15.47;75.14;98428.13;6238098;23;20315;-82
2022/09/01 02:56:54;;;;;;;4.13;3.72;;;;;;;15.40;75.55;98423.94;6242901;23;20020;-84
2022/09/01 02:59:25;;;;;;;3.75;3.45;;;;;;;15.31;76.41;98422.66;6243468;23;20047;-84
2022/09/01 03:01:52;;;;;;;4.32;3.88;;;;;;;15.30;76.52;98431.59;6242174;23;20020;-84
2022/09/01 03:04:21;;;;;;;4.63;4.22;;;;;;;15.17;76.65;98427.25;6243469;23;20042;-83
2022/09/01 03:06:51;;;;;;;4.20;3.80;;;;;;;15.12;76.87;98424.50;6242856;23;20061;-83
2022/09/01 03:09:18;;;;;;;4.85;3.58;;;;;;;15.09;77.27;98428.38;6242636;23;20508;-85
2022/09/01 03:11:50;;;;;;;4.20;3.80;;;;;;;15.02;77.13;98417.06;6243176;23;20016;-84
2022/09/01 03:14:18;;;;;;;4.60;4.20;;;;;;;14.92;77.24;98420.22;6242766;23;20023;-83
2022/09/01 03:16:45;;;;;;;4.35;4.00;;;;;;;14.97;77.21;98420.38;6215471;23;20012;-83
2022/09/01 03:19:13;;;;;;;4.45;4.05;;;;;;;14.91;77.65;98420.44;6243538;23;20016;-83
2022/09/01 03:21:43;;;;;;;4.32;3.92;;;;;;;14.87;77.76;98427.19;6243328;23;20069;-82
2022/09/01 03:24:15;;;;;;;5.78;4.55;;;;;;;14.76;78.01;98427.91;6243104;22;20016;-84
2022/09/01 03:26:44;;;;;;;4.50;4.10;;;;;;;14.80;78.39;98431.72;6242448;23;20491;-82
2022/09/01 03:29:16;;;;;;;4.60;4.20;;;;;;;14.71;78.73;98432.00;6242937;23;20020;-82
2022/09/01 03:31:42;;;;;;;4.78;4.35;;;;;;;14.59;78.99;98417.91;6242618;23;20016;-83
2022/09/01 03:34:09;;;;;;;4.90;4.40;;;;;;;14.52;79.27;98422.44;6242613;23;20016;-84
2022/09/01 03:36:38;;;;;;;5.00;4.60;;;;;;;14.43;79.86;98434.25;6242484;23;20028;-83
2022/09/01 03:39:07;;;;;;;4.75;4.35;;;;;;;14.38;80.33;98436.72;6216156;23;20016;-84
2022/09/01 03:41:40;;;;;;;6.10;4.00;;;;;;;14.37;80.35;98429.84;6217096;23;20087;-85
2022/09/01 03:44:12;;;;;;;4.95;4.30;;;;;;;14.38;80.13;98434.09;6242964;23;20433;-84
2022/09/01 03:46:39;;;;;;;4.50;4.10;;;;;;;14.38;80.57;98432.25;6242642;23;20062;-84
2022/09/01 03:49:06;;;;;;;4.80;4.40;;;;;;;14.43;80.50;98431.63;6242728;23;20051;-84
2022/09/01 03:51:37;;;;;;;4.68;4.28;;;;;;;14.45;80.27;98427.75;6242517;23;20020;-84
2022/09/01 03:54:04;;;;;;;3.83;3.50;;;;;;;14.51;80.30;98436.66;6238110;23;20503;-84
2022/09/01 03:56:32;;;;;;;3.72;3.42;;;;;;;14.51;79.75;98415.53;6215152;23;20023;-84
2022/09/01 03:58:59;;;;;;;3.78;3.47;;;;;;;14.58;79.75;98424.22;6242131;23;20015;-84
2022/09/01 04:01:32;;;;;;;2.85;2.60;;;;;;;14.67;79.75;98432.66;6242433;23;20055;-84
2022/09/01 04:04:00;;;;;;;3.10;2.80;;;;;;;14.59;79.58;98427.66;6242359;23;20023;-84
2022/09/01 04:06:26;;;;;;;3.92;3.53;;;;;;;14.60;79.53;98424.81;6241938;23;20023;-83
2022/09/01 04:08:56;;;;;;;5.10;4.60;;;;;;;14.33;80.13;98429.44;6242283;23;20016;-83
2022/09/01 04:11:24;;;;;;;4.88;4.38;;;;;;;14.30;80.41;98429.91;6242236;23;20016;-84
2022/09/01 04:13:51;;;;;;;4.25;3.90;;;;;;;14.30;80.41;98434.38;6242773;23;20668;-84
2022/09/01 04:19:24;;;;;;;4.68;4.28;;;;;;;14.18;80.59;98428.97;6242248;23;20016;-83
2022/09/01 04:22:01;;;;;;;5.00;4.50;;;;;;;14.08;80.89;98426.81;6242342;23;20016;-83
2022/09/01 04:24:33;;;;;;;4.60;4.20;;;;;;;14.02;80.83;98422.38;6241885;22;20070;-83
2022/09/01 04:27:02;;;;;;;4.93;4.50;;;;;;;14.02;81.22;98426.84;6241512;23;20024;-83
2022/09/01 04:29:31;;;;;;;4.63;4.22;;;;;;;13.97;81.84;98435.41;6241589;23;20422;-83
2022/09/01 04:32:06;;;;;;;4.68;4.28;;;;;;;13.94;81.88;98420.03;6242488;23;20559;-83
2022/09/01 04:34:37;;;;;;;5.35;4.60;;;;;;;13.93;81.92;98434.22;6215238;23;20430;-82
2022/09/01 04:37:17;;;;;;;4.40;3.92;;;;;;;13.97;81.82;98424.03;6241979;23;20488;-83
2022/09/01 04:39:52;;;;;;;5.07;4.45;;;;;;;13.85;81.51;98416.00;6241859;23;20016;-83
2022/09/01 04:42:27;;;;;;;3.92;3.63;;;;;;;13.91;81.41;98426.53;6242033;23;20020;-84
2022/09/01 04:44:56;;;;;;;6.53;4.40;;;;;;;13.87;81.29;98429.81;6241909;23;20012;-83
2022/09/01 04:47:30;;;;;;;5.50;5.00;;;;;;;13.75;81.41;98431.50;6241925;23;20485;-83
2022/09/01 04:50:12;;;;;;;5.85;5.15;;;;;;;13.78;81.62;98439.78;6241609;23;20012;-83
2022/09/01 04:52:41;;;;;;;5.53;4.88;;;;;;;13.69;81.57;98438.44;6209298;23;20418;-83
2022/09/01 04:55:16;;;;;;;6.88;4.90;;;;;;;13.68;81.92;98447.34;6241921;23;20353;-83
2022/09/01 04:57:46;;;;;;;5.53;4.38;;;;;;;13.75;81.75;98448.13;6242025;23;20027;-82
2022/09/01 05:00:21;;;;;;;4.30;3.90;;;;;;;13.85;81.42;98448.47;6242832;23;20016;-83
2022/09/01 05:03:03;;;;;;;3.78;3.47;;;;;;;13.99;81.32;98448.41;6214935;23;20028;-83
2022/09/01 05:05:43;;;;;;;3.33;3.03;;;;;;;14.15;80.78;98440.78;6241781;23;20024;-83
2022/09/01 05:08:19;;;;;;;3.97;3.67;;;;;;;14.20;80.28;98445.38;6241573;23;20016;-83
2022/09/01 05:10:52;;;;;;;4.18;3.78;;;;;;;14.19;80.18;98439.31;6241950;23;20027;-83
2022/09/01 05:13:21;;;;;;;3.60;3.30;;;;;;;14.10;80.10;98432.69;6215008;23;20354;-83
2022/09/01 05:16:11;;;;;;;3.92;3.63;;;;;;;14.23;80.21;98444.16;6242437;23;20302;-82
2022/09/01 05:18:46;;;;;;;3.83;3.47;;;;;;;14.23;79.62;98446.81;6241484;23;20095;-82
2022/09/01 05:21:21;;;;;;;4.97;4.47;;;;;;;14.15;79.36;98442.59;6215803;23;20039;-83
2022/09/01 05:23:49;;;;;;;3.78;3.47;;;;;;;14.10;80.07;98439.81;6241062;23;20043;-83
2022/09/01 05:26:21;;;;;;;4.63;4.18;;;;;;;14.07;79.51;98451.56;6241143;22;20082;-82
2022/09/01 05:28:53;;;;;;;4.65;4.28;;;;;;;14.03;80.39;98454.84;6241679;23;20342;-82
2022/09/01 05:31:26;;;;;;;4.50;4.10;;;;;;;14.00;80.55;98445.53;6214323;23;20020;-82
2022/09/01 05:33:56;;;;;;;5.75;4.90;;;;;;;13.96;80.37;98452.25;6241514;23;20016;-82
2022/09/01 05:36:23;;;;;;;5.35;4.78;;;;;;;13.91;80.27;98457.34;6240677;23;20425;-81
2022/09/01 05:38:51;;;;;;;5.20;4.70;;;;;;;13.97;80.27;98459.13;6241547;23;20055;-83
2022/09/01 05:41:19;;;;;;;5.78;5.13;;;;;;;13.95;80.15;98465.66;6241171;23;20022;-83
2022/09/01 05:43:49;;;;;;;5.22;4.72;;;;;;;13.99;80.17;98454.47;6241318;23;20031;-81
2022/09/01 05:46:21;;;;;;;5.30;4.65;;;;;;;14.08;79.33;98462.94;6235953;23;20020;-82
2022/09/01 05:48:51;;;;;;;5.07;4.63;;;;;;;14.09;79.55;98456.63;6241342;23;20043;-82
2022/09/01 05:51:22;;;;;;;5.25;4.85;;;;;;;14.09;78.72;98456.63;6217032;23;20012;-83
2022/09/01 05:54:10;;;;;;;4.97;4.47;;;;;;;14.16;78.60;98460.84;6190615;23;20821;-82
2022/09/01 05:56:40;;;;;;;5.18;4.68;;;;;;;14.32;77.75;98467.41;6242940;23;20046;-84
2022/09/01 05:59:11;;;;;;;6.03;4.13;;;;;;;14.44;77.48;98462.25;6243461;23;20020;-83
2022/09/01 06:01:55;;;;;;;4.25;3.85;;;;;;;14.56;77.20;98465.03;6243500;23;20429;-82
2022/09/01 06:04:24;;;;;;;4.38;3.95;;;;;;;14.57;76.56;98466.66;6216663;23;20020;-83
2022/09/01 06:06:53;;;;;;;4.18;3.88;;;;;;;14.72;76.42;98465.31;6191329;23;20024;-83
2022/09/01 06:09:41;;;;;;;3.80;3.45;;;;;;;14.90;75.88;98466.38;6242953;23;20098;-84
2022/09/01 06:12:16;;;;;;;4.50;4.10;;;;;;;14.92;75.67;98469.59;6243557;23;20082;-83
2022/09/01 06:14:47;;;;;;;4.57;4.10;;;;;;;14.91;75.04;98457.41;6241652;23;20022;-82
2022/09/01 06:17:15;;;;;;;4.75;4.28;;;;;;;15.05;75.38;98469.44;6215966;23;20042;-83
2022/09/01 06:19:43;;;;;;;4.85;4.45;;;;;;;15.13;74.39;98465.72;6216512;23;20040;-83
2022/09/01 06:22:11;;;;;;;4.65;4.20;;;;;;;15.21;74.18;98465.44;6242830;23;20043;-83
2022/09/01 06:24:39;;;;;;;4.30;4.00;;;;;;;15.33;74.28;98466.31;6215277;23;20078;-83
2022/09/01 06:27:09;;;;;;;4.85;4.05;;;;;;;15.40;73.70;98460.94;6217035;23;20020;-82
2022/09/01 06:29:40;;;;;;;5.20;3.30;;;;;;;15.58;73.86;98466.22;6241333;23;20019;-85
2022/09/01 06:32:09;;;;;;;3.38;3.08;;;;;;;-143.04;100.00;61139.28;6242286;23;20012;-82
2022/09/01 06:34:42;;;;;;;3.05;2.85;;;;;;;-143.04;100.00;61139.28;6242569;23;20441;-84
2022/09/01 06:37:14;;;;;;;3.65;3.35;;;;;;;-143.04;100.00;61139.28;6242615;23;20027;-84
2022/09/01 06:39:41;;;;;;;3.25;3.00;;;;;;;-143.04;100.00;61139.28;6216655;23;20070;-85
2022/09/01 06:42:12;;;;;;;3.30;3.10;;;;;;;-143.04;100.00;61139.28;6242534;23;20012;-85
2022/09/01 06:44:44;;;;;;;2.85;2.65;;;;;;;-143.04;100.00;61139.28;6242056;23;20020;-84
2022/09/01 06:47:15;;;;;;;3.45;3.15;;;;;;;-143.04;100.00;61139.28;6215137;23;20335;-84
2022/09/01 06:49:44;;;;;;;2.80;2.60;;;;;;;-143.04;100.00;61139.28;6215776;23;20083;-85
2022/09/01 06:52:15;;;;;;;2.60;2.40;;;;;;;-143.04;100.00;61139.28;6241843;23;20008;-84
2022/09/01 06:54:43;;;;;;;;;;;;;;;-143.04;100.00;61139.28;6211712;23;20019;-84
2022/09/01 06:57:12;;;;;;;3.50;3.20;;;;;;;-143.04;100.00;61139.28;6242883;23;19923;-84
2022/09/01 07:00:11;;;;;;;3.25;2.95;;;;;;;-143.04;100.00;61139.28;6242824;23;20354;-84
2022/09/01 07:02:41;;;;;;;4.38;3.45;;;;;;;-143.04;100.00;61139.28;6242908;23;20444;-86
2022/09/01 07:05:10;;;;;;;2.78;2.58;;;;;;;-143.04;100.00;61139.28;6216091;23;20050;-85
2022/09/01 07:08:06;;;;;;;3.15;2.85;;;;;;;-143.04;100.00;61139.28;6216475;23;20030;-86
2022/09/01 07:10:40;;;;;;;2.70;2.50;;;;;;;-143.04;100.00;61139.28;6216260;23;20417;-85
2022/09/01 07:13:29;;;;;;;2.50;2.30;;;;;;;-143.04;100.00;61139.28;6243128;23;20022;-86
2022/09/01 07:16:05;;;;;;;2.25;2.15;;;;;;;-143.04;100.00;61139.28;6243240;23;20062;-86
2022/09/01 07:18:57;;;;;;;2.50;2.30;;;;;;;-143.04;100.00;61139.28;6220561;23;20016;-86
2022/09/01 07:21:28;;;;;;;2.72;2.00;;;;;;;-143.04;100.00;61139.28;6242977;23;20019;-84
2022/09/01 07:24:11;;;;;;;2.63;2.20;;;;;;;-143.04;100.00;61139.28;6242392;22;20086;-86
2022/09/01 07:26:41;;;;;;;2.28;2.08;;;;;;;-143.04;100.00;61139.28;6215515;23;20020;-85
2022/09/01 07:29:28;;;;;;;3.07;2.70;;;;;;;-143.04;100.00;61139.28;6243084;23;20503;-85
2022/09/01 07:31:56;;;;;;;2.40;2.20;;;;;;;-143.04;100.00;61139.28;6215913;23;20263;-83
2022/09/01 07:34:45;;;;;;;2.20;2.00;;;;;;;-143.04;100.00;61139.28;6217163;23;20493;-86
2022/09/01 07:37:17;;;;;;;2.47;2.28;;;;;;;-143.04;100.00;61139.28;6218559;23;20020;-87
2022/09/01 07:40:18;;;;;;;2.08;1.85;;;;;;;19.46;59.93;98482.81;6245359;23;20020;-86
2022/09/01 07:43:24;;;;;;;2.60;2.40;;;;;;;19.47;59.10;98495.84;6222292;23;20024;-86
2022/09/01 07:46:04;;;;;;;2.90;2.65;;;;;;;19.43;58.73;98481.47;6192478;23;20111;-86
2022/09/01 07:48:55;;;;;;;2.30;2.10;;;;;;;19.89;58.26;98497.16;6216486;23;20023;-87
2022/09/01 07:51:50;;;;;;;3.38;3.08;;;;;;;19.87;57.01;98481.44;6243985;23;20016;-87
2022/09/01 07:54:17;;;;;;;2.50;2.30;;;;;;;20.22;56.97;98490.84;6216233;23;20027;-86
2022/09/01 07:56:44;;;;;;;2.88;2.50;;;;;;;20.28;56.45;98497.84;6194581;23;20023;-88
2022/09/01 07:59:11;;;;;;;2.63;2.42;;;;;;;20.10;56.29;98475.03;6242429;23;20531;-87
2022/09/01 08:01:41;;;;;;;2.75;2.55;;;;;;;20.07;56.09;98488.03;6242561;23;20059;-87
2022/09/01 08:04:08;;;;;;;2.50;2.30;;;;;;;19.83;56.31;98485.66;6218581;23;20584;-84
2022/09/01 08:06:35;;;;;;;2.30;2.20;;;;;;;19.95;56.94;98491.63;6246310;23;20086;-89
2022/09/01 08:09:07;;;;;;;3.60;2.40;;;;;;;20.10;56.63;98482.22;6219160;23;20095;-84
2022/09/01 08:11:37;;;;;;;2.60;2.40;;;;;;;20.46;54.57;98480.69;6243030;23;20457;-83
2022/09/01 08:14:24;;;;;;;2.50;2.30;;;;;;;20.67;53.51;98492.31;6240630;23;20046;-82
2022/09/01 08:16:51;;;;;;;3.42;2.30;;;;;;;20.72;53.23;98489.69;6242487;23;20023;-81
2022/09/01 08:19:19;;;;;;;2.60;2.33;;;;;;;20.78;51.83;98499.31;6243329;23;20438;-87
2022/09/01 08:21:45;;;;;;;2.30;2.10;;;;;;;21.01;51.94;98498.94;6216622;23;20062;-86
2022/09/01 08:24:13;;;;;;;2.40;2.20;;;;;;;21.15;52.05;98504.63;6215791;22;20051;-81
2022/09/01 08:26:40;;;;;;;2.35;2.10;;;;;;;21.28;52.87;98482.03;6215991;23;20024;-85
2022/09/01 08:29:06;;;;;;;2.53;2.20;;;;;;;21.38;51.05;98495.44;6216681;23;20019;-85
2022/09/01 08:31:35;;;;;;;2.03;1.92;;;;;;;21.41;52.67;98486.94;6242064;23;20016;-85
2022/09/01 08:34:04;;;;;;;2.30;2.10;;;;;;;21.31;51.61;98481.56;6243147;23;20327;-86
2022/09/01 08:36:31;;;;;;;2.72;2.45;;;;;;;21.41;51.22;98500.28;6243156;23;20047;-86
2022/09/01 08:38:58;;;;;;;2.33;2.13;;;;;;;21.20;50.59;98490.53;6243586;23;20442;-87
2022/09/01 08:42:09;;;;;;;2.28;2.03;;;;;;;21.16;52.76;98494.75;6217615;23;20015;-87
2022/09/01 08:45:27;;;;;;;2.40;2.20;;;;;;;21.16;51.93;98505.44;6243063;23;20023;-86
2022/09/01 08:47:59;;;;;;;2.45;2.25;;;;;;;21.24;50.75;98507.63;6242192;23;20023;-83
2022/09/01 08:50:58;;;;;;;2.50;2.30;;;;;;;21.41;50.82;98492.28;6240872;23;20048;-84
2022/09/01 08:53:35;;;;;;;2.60;2.40;;;;;;;21.70;50.95;98497.16;6239210;23;20027;-85
2022/09/01 08:56:04;;;;;;;2.10;1.95;;;;;;;21.79;49.53;98492.94;6216191;23;20020;-86
2022/09/01 08:58:31;;;;;;;1.85;1.75;;;;;;;22.08;49.28;98501.31;6217952;23;20023;-84
2022/09/01 09:01:15;;;;;;;1.92;1.75;;;;;;;22.32;49.10;98512.31;6243553;23;20012;-86
2022/09/01 09:03:56;;;;;;;2.42;1.95;;;;;;;22.04;47.98;98498.34;6242377;23;20043;-86
2022/09/01 09:06:58;;;;;;;4.30;2.15;;;;;;;22.32;47.49;98498.97;6215309;23;20023;-88
2022/09/01 09:09:50;;;;;;;2.38;2.15;;;;;;;22.38;46.81;98484.53;6217027;23;20026;-84
2022/09/01 09:12:58;;;;;;;2.50;2.03;;;;;;;22.21;47.43;98494.66;6216916;23;20019;-86
2022/09/01 09:16:00;;;;;;;3.25;2.65;;;;;;;22.39;47.08;98502.97;6191161;23;20020;-86
2022/09/01 09:18:47;;;;;;;2.00;1.90;;;;;;;22.37;45.99;98497.09;6216271;23;20026;-86
2022/09/01 09:21:38;;;;;;;2.00;1.90;;;;;;;22.75;45.35;98502.16;6192630;23;20429;-85
2022/09/01 09:24:51;;;;;;;2.30;2.10;;;;;;;23.03;45.64;98490.94;6216787;22;20369;-86
2022/09/01 09:27:19;;;;;;;2.28;1.85;;;;;;;23.42;44.41;98493.75;6244192;23;20016;-86
2022/09/01 09:30:05;;;;;;;2.30;1.95;;;;;;;23.65;44.37;98486.19;6220160;23;20510;-82
2022/09/01 09:32:59;;;;;;;2.10;1.90;;;;;;;23.50;42.16;98487.03;6245479;23;20023;-86
2022/09/01 09:35:46;;;;;;;1.90;1.70;;;;;;;23.43;43.57;98473.94;6245883;23;20016;-86
2022/09/01 09:38:21;;;;;;;1.85;1.75;;;;;;;23.37;43.63;98485.75;6243605;23;20110;-88
2022/09/01 09:41:15;;;;;;;1.50;1.40;;;;;;;23.45;43.81;98482.50;6194346;23;20103;-86
2022/09/01 09:44:03;;;;;;;2.58;2.15;;;;;;;23.40;43.31;98487.88;6217654;23;20020;-82
2022/09/01 09:46:35;;;;;;;2.17;1.90;;;;;;;23.50;43.79;98484.34;6246571;23;20133;-86
2022/09/01 09:49:09;;;;;;;2.97;2.20;;;;;;;23.32;42.45;98487.63;6218127;23;20099;-86
2022/09/01 09:51:40;;;;;;;2.05;1.80;;;;;;;23.74;42.65;98474.63;6244479;23;20021;-89
2022/09/01 09:54:20;;;;;;;2.00;1.80;;;;;;;24.22;41.43;98485.59;6246034;23;20035;-86
2022/09/01 09:57:11;;;;;;;2.50;2.05;;;;;;;24.36;39.48;98479.66;6246639;23;20095;-86
2022/09/01 09:59:56;;;;;;;1.90;1.75;;;;;;;24.70;40.53;98480.41;6218459;23;20023;-85
2022/09/01 10:02:39;;;;;;;1.80;1.70;;;;;;;24.58;39.77;98466.56;6247149;23;20008;-84
2022/09/01 10:05:47;;;;;;;2.20;2.00;;;;;;;24.56;39.53;98476.78;6243947;23;20012;-85
2022/09/01 10:08:43;;;;;;;2.00;1.85;;;;;;;24.33;40.28;98478.28;6245170;23;20024;-84
2022/09/01 10:11:28;;;;;;;1.95;1.70;;;;;;;24.18;41.17;98478.41;6217689;23;20079;-87
2022/09/01 10:14:09;;;;;;;2.15;1.60;;;;;;;24.13;40.50;98479.22;6220288;23;20373;-85
2022/09/01 10:16:41;;;;;;;2.42;1.70;;;;;;;23.92;39.49;98469.72;6243904;23;20432;-88
2022/09/01 10:19:13;;;;;;;1.60;1.50;;;;;;;24.18;40.88;98468.47;6195226;23;20525;-87
2022/09/01 10:21:44;;;;;;;;;;;;;;;24.27;40.27;98466.00;6219925;23;20015;-89
2022/09/01 10:24:34;;;;;;;2.10;1.70;;;;;;;24.61;40.82;98473.28;6219403;22;20287;-87
2022/09/01 10:27:26;;;;;;;2.95;1.70;;;;;;;24.71;40.42;98468.63;6242541;23;20036;-84
2022/09/01 10:30:12;;;;;;;1.98;1.85;;;;;;;24.67;39.33;98464.88;6245413;23;20054;-87
2022/09/01 10:32:50;;;;;;;1.77;1.67;;;;;;;24.65;38.14;98469.75;6216359;23;20016;-88
2022/09/01 10:35:30;;;;;;;1.55;1.40;;;;;;;24.81;39.81;98471.19;6245322;23;20027;-87
2022/09/01 10:38:05;;;;;;;1.70;1.60;;;;;;;24.86;39.59;98474.91;6219668;23;20092;-88
2022/09/01 10:40:49;;;;;;;2.00;1.80;;;;;;;24.51;39.54;98469.59;6218530;23;20091;-87
2022/09/01 10:43:44;;;;;;;1.60;1.50;;;;;;;24.64;39.69;98470.00;6247158;23;20091;-88
2022/09/01 10:46:19;;;;;;;2.70;1.58;;;;;;;24.76;40.13;98468.53;6220051;23;20043;-88
2022/09/01 10:49:44;;;;;;;1.70;1.60;;;;;;;24.75;38.43;98469.63;6220011;23;20012;-86
2022/09/01 10:52:40;;;;;;;1.95;1.48;;;;;;;24.77;38.75;98470.16;6247127;23;20020;-86
2022/09/01 10:56:02;;;;;;;1.48;1.38;;;;;;;24.68;38.55;98463.81;6193422;23;20362;-88
2022/09/01 10:59:05;;;;;;;1.85;1.63;;;;;;;24.42;39.02;98455.19;6131982;23;20744;-87
2022/09/01 11:01:54;;;;;;;1.65;1.55;;;;;;;24.48;38.80;98464.00;6217414;23;20050;-87
2022/09/01 11:04:44;;;;;;;2.47;1.70;;;;;;;24.33;39.53;98451.47;6219892;23;20057;-88
2022/09/01 11:07:20;;;;;;;1.92;1.63;;;;;;;24.33;40.97;98450.66;6218746;23;20051;-87
2022/09/01 11:10:35;;;;;;;1.92;1.50;;;;;;;24.33;40.99;98450.66;6224879;23;20024;-89
2022/09/01 11:13:27;;;;;;;1.65;1.55;;;;;;;24.36;39.68;98461.69;6195539;23;20020;-86
2022/09/01 11:15:54;;;;;;;1.50;1.40;;;;;;;24.38;40.14;98450.66;6246482;23;20046;-87
2022/09/01 11:18:30;;;;;;;1.65;1.55;;;;;;;24.19;41.00;98463.91;6219157;23;20091;-86
2022/09/01 11:21:28;;;;;;;1.70;1.60;;;;;;;24.20;40.17;98460.16;6220039;23;20016;-86
2022/09/01 11:24:37;;;;;;;2.10;2.00;;;;;;;24.14;41.50;98456.72;6218120;22;20479;-88
2022/09/01 11:27:06;;;;;;;2.90;1.98;;;;;;;24.03;40.07;98460.53;6218069;23;20046;-89
2022/09/01 11:29:55;;;;;;;2.30;2.10;;;;;;;23.90;40.91;98456.59;6244814;23;20016;-86
2022/09/01 11:32:31;;;;;;;1.83;1.73;;;;;;;23.80;42.25;98463.88;6218843;23;20505;-85
2022/09/01 11:35:11;;;;;;;2.20;2.00;;;;;;;23.76;41.29;98458.31;6244152;23;20350;-85
2022/09/01 11:37:39;;;;;;;2.10;1.90;;;;;;;;;;6246450;23;20135;-87
2022/09/01 11:40:08;;;;;;;2.25;2.05;;;;;;;23.87;42.16;98445.63;6193780;23;20016;-87
2022/09/01 11:42:43;;;;;;;2.30;2.10;;;;;;;23.73;41.07;98456.16;6243631;23;20496;-86
2022/09/01 11:45:18;;;;;;;1.90;1.80;;;;;;;23.87;40.81;98442.94;6243741;23;20442;-88
2022/09/01 11:48:02;;;;;;;1.98;1.85;;;;;;;23.91;42.81;98450.16;6245340;23;20020;-84
2022/09/01 11:50:37;;;;;;;2.55;2.35;;;;;;;23.72;41.47;98450.00;6244249;23;20330;-86
2022/09/01 11:53:07;;;;;;;2.90;1.80;;;;;;;23.91;42.27;98441.31;6244272;23;20024;-88
2022/09/01 11:55:54;;;;;;;2.10;1.95;;;;;;;24.13;43.10;98443.59;6223321;23;20035;-86
2022/09/01 11:58:27;;;;;;;1.67;1.58;;;;;;;24.34;42.04;98452.28;6246729;23;20081;-90
2022/09/01 12:01:10;;;;;;;2.25;2.15;;;;;;;24.24;40.48;98432.53;6219046;23;20334;-86
2022/09/01 12:03:37;;;;;;;2.20;2.00;;;;;;;24.20;40.93;98438.72;6220109;23;20036;-85
2022/09/01 12:06:08;;;;;;;2.35;2.10;;;;;;;24.37;40.34;98444.50;6244678;23;20026;-86
2022/09/01 12:08:41;;;;;;;;;;;;;;;24.81;42.53;98452.41;6246145;23;20095;-88
2022/09/01 12:11:20;;;;;;;2.25;2.10;;;;;;;24.49;38.64;98449.50;6217545;23;19919;-86
2022/09/01 12:14:02;;;;;;;3.80;2.28;;;;;;;24.43;40.87;98448.75;6244562;23;20081;-88
2022/09/01 12:16:40;;;;;;;2.33;2.13;;;;;;;24.49;39.27;98450.31;6217279;23;20024;-86